createdAt,value
2019-04-14T00:00:22.987Z,-0.18
2019-04-14T00:02:59.817Z,-0.16
2019-04-14T00:05:32.730Z,-0.13
2019-04-14T00:08:02.444Z,-0.16
2019-04-14T00:10:33.362Z,-0.17
2019-04-14T00:13:04.604Z,-0.17
2019-04-14T00:15:41.122Z,-0.11
2019-04-14T00:18:07.535Z,-0.13
2019-04-14T00:20:38.727Z,-0.22
2019-04-14T00:23:08.925Z,-0.29
2019-04-14T00:25:39.119Z,-0.36
2019-04-14T00:28:09.536Z,-0.42
2019-04-14T00:30:40.510Z,-0.47
2019-04-14T00:33:12.691Z,-0.52
2019-04-14T00:36:00.647Z,-0.55
2019-04-14T00:38:43.453Z,-0.54
2019-04-14T00:41:48.504Z,-0.58
2019-04-14T00:44:32.367Z,-0.65
2019-04-14T00:47:31.179Z,-0.69
2019-04-14T00:50:01.743Z,-0.69
2019-04-14T00:52:32.160Z,-0.73
2019-04-14T00:55:03.293Z,-0.69
2019-04-14T00:57:33.654Z,-0.72
2019-04-14T01:00:04.180Z,-0.73
2019-04-14T01:02:36.408Z,-0.73
2019-04-14T01:05:08.929Z,-0.73
2019-04-14T01:07:39.294Z,-0.81
2019-04-14T01:10:10.392Z,-0.82
2019-04-14T01:12:41.566Z,-0.84
2019-04-14T01:15:12.099Z,-0.85
2019-04-14T01:17:42.267Z,-0.85
2019-04-14T01:20:12.718Z,-0.91
2019-04-14T01:22:42.943Z,-0.87
2019-04-14T01:25:13.572Z,-0.87
2019-04-14T01:27:44.945Z,-0.89
2019-04-14T01:30:15.505Z,-0.88
2019-04-14T01:32:45.826Z,-0.86
2019-04-14T01:35:16.291Z,-0.83
2019-04-14T01:37:46.512Z,-0.83
2019-04-14T01:40:16.749Z,-0.85
2019-04-14T01:42:46.905Z,-0.87
2019-04-14T01:45:18.913Z,-0.88
2019-04-14T01:47:49.266Z,-0.98
2019-04-14T01:50:21.512Z,-0.98
2019-04-14T01:53:01.305Z,-1.00
2019-04-14T01:55:57.047Z,-1.01
2019-04-14T01:58:36.034Z,-1.07
2019-04-14T02:01:32.485Z,-1.05
2019-04-14T02:04:03.003Z,-1.09
2019-04-14T02:06:33.470Z,-1.18
2019-04-14T02:09:05.553Z,-1.13
2019-04-14T02:11:36.238Z,-1.07
2019-04-14T02:14:06.605Z,-1.03
2019-04-14T02:16:41.928Z,-0.97
2019-04-14T02:19:08.919Z,-1.05
2019-04-14T02:21:39.416Z,-1.15
2019-04-14T02:24:09.616Z,-1.14
2019-04-14T02:26:39.809Z,-1.15
2019-04-14T02:29:10.010Z,-1.25
2019-04-14T02:32:13.709Z,-1.23
2019-04-14T02:34:43.783Z,-1.21
2019-04-14T02:37:10.368Z,-1.22
2019-04-14T02:39:48.271Z,-1.23
2019-04-14T02:44:45.834Z,-1.20
2019-04-14T02:47:36.352Z,-1.18
2019-04-14T02:52:19.725Z,-1.21
2019-04-14T02:54:59.866Z,-1.19
2019-04-14T02:57:25.120Z,-1.13
2019-04-14T02:59:58.539Z,-1.08
2019-04-14T03:02:30.764Z,-1.05
2019-04-14T03:07:36.223Z,-1.02
2019-04-14T03:10:00.711Z,-0.99
2019-04-14T03:15:09.756Z,-0.88
2019-04-14T03:18:16.331Z,-0.84
2019-04-14T03:20:59.020Z,-0.82
2019-04-14T03:23:46.348Z,-0.82
2019-04-14T03:26:18.219Z,-0.83
2019-04-14T03:28:58.885Z,-0.85
2019-04-14T03:32:04.738Z,-0.88
2019-04-14T03:39:10.466Z,-0.83
2019-04-14T03:41:37.230Z,-0.89
2019-04-14T03:44:25.790Z,-0.89
2019-04-14T03:49:19.758Z,-0.84
2019-04-14T03:51:50.250Z,-0.80
2019-04-14T03:54:15.881Z,-0.71
2019-04-14T03:56:48.960Z,-0.67
2019-04-14T03:59:19.728Z,-0.70
2019-04-14T04:01:50.214Z,-0.82
2019-04-14T04:04:20.651Z,-0.81
2019-04-14T04:06:51.134Z,-0.87
2019-04-14T04:09:26.403Z,-0.89
2019-04-14T04:11:56.582Z,-0.89
2019-04-14T04:14:27.158Z,-0.92
2019-04-14T04:17:15.303Z,-0.99
2019-04-14T04:20:03.062Z,-1.01
2019-04-14T04:22:50.808Z,-1.05
2019-04-14T04:25:39.991Z,-1.06
2019-04-14T04:28:32.373Z,-1.03
2019-04-14T04:31:10.997Z,-1.02
2019-04-14T04:34:03.421Z,-0.97
2019-04-14T04:37:01.916Z,-0.77
2019-04-14T04:39:36.509Z,-0.56
2019-04-14T04:42:07.016Z,-0.38
2019-04-14T04:44:37.751Z,-0.18
2019-04-14T04:47:07.970Z,-0.01
2019-04-14T04:49:38.371Z,0.10
2019-04-14T04:52:11.933Z,0.26
2019-04-14T04:54:40.669Z,0.44
2019-04-14T04:57:11.296Z,0.54
2019-04-14T04:59:41.589Z,0.63
2019-04-14T05:02:11.813Z,0.83
2019-04-14T05:04:42.048Z,1.02
2019-04-14T05:07:12.336Z,1.22
2019-04-14T05:10:00.288Z,1.40
2019-04-14T05:13:01.119Z,1.53
2019-04-14T05:15:46.641Z,1.43
2019-04-14T05:18:22.243Z,1.40
2019-04-14T05:20:53.229Z,1.24
2019-04-14T05:23:23.780Z,1.23
2019-04-14T05:25:54.283Z,1.31
2019-04-14T05:28:26.871Z,1.39
2019-04-14T05:30:57.032Z,1.51
2019-04-14T05:33:27.249Z,1.60
2019-04-14T05:35:57.524Z,1.58
2019-04-14T05:38:30.626Z,1.69
2019-04-14T05:41:00.422Z,1.68
2019-04-14T05:43:41.508Z,1.67
2019-04-14T05:46:03.508Z,1.75
2019-04-14T05:48:33.860Z,1.83
2019-04-14T05:51:04.208Z,1.88
2019-04-14T05:53:35.555Z,1.85
2019-04-14T05:56:06.145Z,1.78
2019-04-14T05:58:36.337Z,1.88
2019-04-14T06:01:06.943Z,1.92
2019-04-14T06:03:38.545Z,2.00
2019-04-14T06:06:08.901Z,2.17
2019-04-14T06:08:39.120Z,2.27
2019-04-14T06:11:09.337Z,2.29
2019-04-14T06:13:39.522Z,2.35
2019-04-14T06:16:09.688Z,2.35
2019-04-14T06:18:39.857Z,2.50
2019-04-14T06:21:10.054Z,2.52
2019-04-14T06:23:40.275Z,2.56
2019-04-14T06:26:10.450Z,2.69
2019-04-14T06:28:40.627Z,2.75
2019-04-14T06:31:42.001Z,2.92
2019-04-14T06:34:23.147Z,3.04
2019-04-14T06:37:27.778Z,3.13
2019-04-14T06:39:57.971Z,3.12
2019-04-14T06:42:28.162Z,3.24
2019-04-14T06:44:58.352Z,3.38
2019-04-14T06:47:28.685Z,3.47
2019-04-14T06:49:58.863Z,3.67
2019-04-14T06:52:29.052Z,3.85
2019-04-14T06:54:59.199Z,3.87
2019-04-14T06:57:29.377Z,3.98
2019-04-14T06:59:59.602Z,4.23
2019-04-14T07:02:29.768Z,4.31
2019-04-14T07:04:59.938Z,4.46
2019-04-14T07:07:30.389Z,4.57
2019-04-14T07:10:00.588Z,4.56
2019-04-14T07:12:30.739Z,4.78
2019-04-14T07:15:01.277Z,5.11
2019-04-14T07:17:31.481Z,5.23
2019-04-14T07:20:02.573Z,5.40
2019-04-14T07:22:32.889Z,5.44
2019-04-14T07:25:03.283Z,5.67
2019-04-14T07:27:33.471Z,5.89
2019-04-14T07:30:22.629Z,5.95
2019-04-14T07:33:11.757Z,5.82
2019-04-14T07:36:13.216Z,5.76
2019-04-14T07:38:50.269Z,5.75
2019-04-14T07:41:34.506Z,5.86
2019-04-14T07:44:36.073Z,5.61
2019-04-14T07:47:28.361Z,6.09
2019-04-14T07:50:17.268Z,6.15
2019-04-14T07:53:24.481Z,6.36
2019-04-14T07:56:07.808Z,6.47
2019-04-14T07:59:03.205Z,6.63
2019-04-14T08:01:37.508Z,6.63
2019-04-14T08:04:17.162Z,6.63
2019-04-14T08:06:50.266Z,6.68
2019-04-14T08:09:20.445Z,6.74
2019-04-14T08:11:50.750Z,6.81
2019-04-14T08:14:20.922Z,6.69
2019-04-14T08:16:51.112Z,6.92
2019-04-14T08:19:21.397Z,7.06
2019-04-14T08:21:51.643Z,7.13
2019-04-14T08:24:21.932Z,7.19
2019-04-14T08:26:52.274Z,7.32
2019-04-14T08:29:22.490Z,7.34
2019-04-14T08:31:52.735Z,7.34
2019-04-14T08:34:22.948Z,7.32
2019-04-14T08:36:53.162Z,7.03
2019-04-14T08:39:23.319Z,6.92
2019-04-14T08:42:00.894Z,7.02
2019-04-14T08:44:40.914Z,7.11
2019-04-14T08:47:33.640Z,7.05
2019-04-14T08:50:14.598Z,6.91
2019-04-14T08:53:09.715Z,6.95
2019-04-14T08:56:05.028Z,7.00
2019-04-14T08:58:43.637Z,6.90
2019-04-14T09:01:20.421Z,6.94
2019-04-14T09:04:16.296Z,6.82
2019-04-14T09:06:51.042Z,6.71
2019-04-14T09:09:30.200Z,6.91
2019-04-14T09:12:15.290Z,6.77
2019-04-14T09:14:38.286Z,6.81
2019-04-14T09:17:08.664Z,6.94
2019-04-14T09:19:38.874Z,7.10
2019-04-14T09:22:09.025Z,7.27
2019-04-14T09:24:39.315Z,7.03
2019-04-14T09:27:09.684Z,7.01
2019-04-14T09:29:39.905Z,7.05
2019-04-14T09:32:11.120Z,7.07
2019-04-14T09:34:45.801Z,7.20
2019-04-14T09:37:16.093Z,7.05
2019-04-14T09:39:46.254Z,7.18
2019-04-14T09:42:17.491Z,7.27
2019-04-14T09:44:48.025Z,7.24
2019-04-14T09:47:18.189Z,7.19
2019-04-14T09:49:48.345Z,7.30
2019-04-14T09:52:18.671Z,7.26
2019-04-14T09:54:49.091Z,7.38
2019-04-14T09:57:19.464Z,7.49
2019-04-14T09:59:49.660Z,7.61
2019-04-14T10:02:19.883Z,7.59
2019-04-14T10:04:50.092Z,7.55
2019-04-14T10:07:20.473Z,7.56
2019-04-14T10:09:50.732Z,7.55
2019-04-14T10:12:20.900Z,7.63
2019-04-14T10:14:51.083Z,7.81
2019-04-14T10:17:21.274Z,7.83
2019-04-14T10:19:51.473Z,7.89
2019-04-14T10:22:33.473Z,8.20
2019-04-14T10:24:54.795Z,8.13
2019-04-14T10:27:25.153Z,8.26
2019-04-14T10:29:55.560Z,8.69
2019-04-14T10:32:25.885Z,8.34
2019-04-14T10:34:56.357Z,8.48
2019-04-14T10:37:26.549Z,8.20
2019-04-14T10:39:56.780Z,8.30
2019-04-14T10:42:27.007Z,8.21
2019-04-14T10:44:57.202Z,8.03
2019-04-14T10:47:27.407Z,8.22
2019-04-14T10:49:57.636Z,8.25
2019-04-14T10:52:27.829Z,8.25
2019-04-14T10:54:59.111Z,8.62
2019-04-14T10:57:29.338Z,8.62
2019-04-14T10:59:59.547Z,8.35
2019-04-14T11:02:29.776Z,8.36
2019-04-14T11:04:59.999Z,8.21
2019-04-14T11:07:31.660Z,8.26
2019-04-14T11:10:01.837Z,7.99
2019-04-14T11:12:32.976Z,7.90
2019-04-14T11:15:03.158Z,7.93
2019-04-14T11:17:33.334Z,8.02
2019-04-14T11:20:03.635Z,8.22
2019-04-14T11:22:34.032Z,8.25
2019-04-14T11:25:04.206Z,8.06
2019-04-14T11:27:34.581Z,7.86
2019-04-14T11:30:06.656Z,7.84
2019-04-14T11:33:05.132Z,7.84
2019-04-14T11:35:49.497Z,7.89
2019-04-14T11:38:25.714Z,7.98
2019-04-14T11:41:00.954Z,8.13
2019-04-14T11:43:31.137Z,8.45
2019-04-14T11:46:03.418Z,8.68
2019-04-14T11:48:33.377Z,8.93
2019-04-14T11:51:03.795Z,9.06
2019-04-14T11:53:33.949Z,9.22
2019-04-14T11:56:04.384Z,9.45
2019-04-14T11:58:34.534Z,9.79
2019-04-14T12:01:22.573Z,9.56
2019-04-14T12:04:01.777Z,9.17
2019-04-14T12:06:49.622Z,8.95
2019-04-14T12:09:38.736Z,9.10
2019-04-14T12:12:10.299Z,8.89
2019-04-14T12:14:40.450Z,8.88
2019-04-14T12:17:11.699Z,8.92
2019-04-14T12:19:45.452Z,8.88
2019-04-14T12:22:15.710Z,8.92
2019-04-14T12:24:45.895Z,9.23
2019-04-14T12:27:16.119Z,9.32
2019-04-14T12:29:46.291Z,8.93
2019-04-14T12:32:17.250Z,9.08
2019-04-14T12:34:49.281Z,9.04
2019-04-14T12:37:19.494Z,8.85
2019-04-14T12:39:49.680Z,8.46
2019-04-14T12:42:27.234Z,8.56
2019-04-14T12:45:16.583Z,8.69
2019-04-14T12:47:58.360Z,8.77
2019-04-14T12:50:38.152Z,9.01
2019-04-14T12:53:12.173Z,9.42
2019-04-14T12:55:49.059Z,9.74
2019-04-14T12:58:28.839Z,9.35
2019-04-14T13:01:24.455Z,9.42
2019-04-14T13:04:00.495Z,9.25
2019-04-14T13:06:35.215Z,9.29
2019-04-14T13:09:14.462Z,8.96
2019-04-14T13:11:47.963Z,9.09
2019-04-14T13:14:21.470Z,9.40
2019-04-14T13:16:58.234Z,9.36
2019-04-14T13:19:36.325Z,9.40
2019-04-14T13:22:17.824Z,9.41
2019-04-14T13:24:51.647Z,9.48
2019-04-14T13:27:23.230Z,9.41
2019-04-14T13:29:57.150Z,9.28
2019-04-14T13:32:35.735Z,9.09
2019-04-14T13:35:00.418Z,9.15
2019-04-14T13:37:30.569Z,9.13
2019-04-14T13:40:10.258Z,8.90
2019-04-14T13:42:46.215Z,8.99
2019-04-14T13:45:23.187Z,9.08
2019-04-14T13:47:57.227Z,8.94
2019-04-14T13:50:33.639Z,8.94
2019-04-14T13:53:04.208Z,9.18
2019-04-14T13:55:34.975Z,8.92
2019-04-14T13:58:05.200Z,8.63
2019-04-14T14:00:35.394Z,8.80
2019-04-14T14:03:06.444Z,8.88
2019-04-14T14:05:36.984Z,8.78
2019-04-14T14:08:07.210Z,8.56
2019-04-14T14:10:37.484Z,8.44
2019-04-14T14:13:29.931Z,8.58
2019-04-14T14:16:24.019Z,8.69
2019-04-14T14:19:05.114Z,8.85
2019-04-14T14:22:00.917Z,8.64
2019-04-14T14:24:49.060Z,8.70
2019-04-14T14:27:20.351Z,8.72
2019-04-14T14:29:51.278Z,8.79
2019-04-14T14:32:28.966Z,8.68
2019-04-14T14:35:00.904Z,8.64
2019-04-14T14:37:31.664Z,8.80
2019-04-14T14:40:02.771Z,8.82
2019-04-14T14:42:35.389Z,8.67
2019-04-14T14:45:18.861Z,8.34
2019-04-14T14:48:07.983Z,8.24
2019-04-14T14:50:55.478Z,8.07
2019-04-14T14:53:27.085Z,7.91
2019-04-14T14:56:01.835Z,7.85
2019-04-14T14:58:35.798Z,7.81
2019-04-14T15:01:13.999Z,7.98
2019-04-14T15:03:49.153Z,8.13
2019-04-14T15:06:23.270Z,8.13
2019-04-14T15:08:58.128Z,8.49
2019-04-14T15:11:36.746Z,8.32
2019-04-14T15:14:09.886Z,8.44
2019-04-14T15:16:40.312Z,8.17
2019-04-14T15:19:11.280Z,7.89
2019-04-14T15:21:44.682Z,7.79
2019-04-14T15:24:21.909Z,7.73
2019-04-14T15:26:57.760Z,7.71
2019-04-14T15:29:28.692Z,7.53
2019-04-14T15:32:00.704Z,7.62
2019-04-14T15:34:31.587Z,7.65
2019-04-14T15:37:02.234Z,7.65
2019-04-14T15:39:33.190Z,7.54
2019-04-14T15:42:03.935Z,7.52
2019-04-14T15:44:35.084Z,7.52
2019-04-14T15:47:06.028Z,7.56
2019-04-14T15:49:40.747Z,7.68
2019-04-14T15:52:20.041Z,7.55
2019-04-14T15:54:55.037Z,7.36
2019-04-14T15:57:34.003Z,7.29
2019-04-14T16:00:39.910Z,7.25
2019-04-14T16:03:34.340Z,7.10
2019-04-14T16:06:23.326Z,7.08
2019-04-14T16:09:18.571Z,6.85
2019-04-14T16:12:12.962Z,6.82
2019-04-14T16:15:04.711Z,6.71
2019-04-14T16:17:51.233Z,6.65
2019-04-14T16:20:34.823Z,6.60
2019-04-14T16:23:08.118Z,6.51
2019-04-14T16:25:56.301Z,6.49
2019-04-14T16:28:54.193Z,6.45
2019-04-14T16:31:44.230Z,6.47
2019-04-14T16:34:21.027Z,6.50
2019-04-14T16:36:52.816Z,6.52
2019-04-14T16:39:23.066Z,6.38
2019-04-14T16:41:53.236Z,6.29
2019-04-14T16:44:23.466Z,6.34
2019-04-14T16:46:54.302Z,6.35
2019-04-14T16:49:24.816Z,6.35
2019-04-14T16:52:00.960Z,6.34
2019-04-14T16:54:46.962Z,6.37
2019-04-14T16:57:50.069Z,6.32
2019-04-14T17:00:40.355Z,6.34
2019-04-14T17:03:11.746Z,6.24
2019-04-14T17:05:42.590Z,6.33
2019-04-14T17:08:13.103Z,6.25
2019-04-14T17:10:43.730Z,6.17
2019-04-14T17:13:18.757Z,6.23
2019-04-14T17:16:11.950Z,6.19
2019-04-14T17:19:00.545Z,6.20
2019-04-14T17:21:55.785Z,6.15
2019-04-14T17:24:52.785Z,6.06
2019-04-14T17:27:34.195Z,6.03
2019-04-14T17:30:36.556Z,5.97
2019-04-14T17:33:23.629Z,5.85
2019-04-14T17:36:15.092Z,5.81
2019-04-14T17:39:16.523Z,5.98
2019-04-14T17:42:07.744Z,6.00
2019-04-14T17:45:02.065Z,6.07
2019-04-14T17:47:52.352Z,6.08
2019-04-14T17:50:40.843Z,6.10
2019-04-14T17:53:19.622Z,6.06
2019-04-14T17:56:18.732Z,6.07
2019-04-14T17:58:58.219Z,6.07
2019-04-14T18:01:49.141Z,6.02
2019-04-14T18:04:47.504Z,5.97
2019-04-14T18:07:41.829Z,5.89
2019-04-14T18:10:25.211Z,5.82
2019-04-14T18:13:07.962Z,5.75
2019-04-14T18:16:00.216Z,5.64
2019-04-14T18:18:53.908Z,5.55
2019-04-14T18:21:28.801Z,5.42
2019-04-14T18:24:04.758Z,5.27
2019-04-14T18:26:38.123Z,5.18
2019-04-14T18:29:38.430Z,5.08
2019-04-14T18:32:42.004Z,4.94
2019-04-14T18:35:42.835Z,4.78
2019-04-14T18:38:54.166Z,4.63
2019-04-14T18:41:54.255Z,4.51
2019-04-14T18:44:50.595Z,4.38
2019-04-14T18:47:42.641Z,4.23
2019-04-14T18:50:31.242Z,4.07
2019-04-14T18:53:12.882Z,3.96
2019-04-14T18:55:57.329Z,3.85
2019-04-14T18:58:55.004Z,3.80
2019-04-14T19:01:30.468Z,3.70
2019-04-14T19:04:07.523Z,3.58
2019-04-14T19:06:44.248Z,3.53
2019-04-14T19:09:19.188Z,3.46
2019-04-14T19:12:12.754Z,3.42
2019-04-14T19:14:46.034Z,3.33
2019-04-14T19:17:45.602Z,3.22
2019-04-14T19:20:20.119Z,3.14
2019-04-14T19:23:01.498Z,3.07
2019-04-14T19:25:36.737Z,3.00
2019-04-14T19:28:13.365Z,2.88
2019-04-14T19:30:45.367Z,2.84
2019-04-14T19:33:19.544Z,2.75
2019-04-14T19:35:51.489Z,2.67
2019-04-14T19:38:26.462Z,2.59
2019-04-14T19:41:01.512Z,2.51
2019-04-14T19:43:35.797Z,2.53
2019-04-14T19:46:08.749Z,2.46
2019-04-14T19:48:41.055Z,2.39
2019-04-14T19:51:13.080Z,2.33
2019-04-14T19:53:51.196Z,2.27
2019-04-14T19:56:28.191Z,2.21
2019-04-14T19:58:59.652Z,2.17
2019-04-14T20:01:30.706Z,2.11
2019-04-14T20:04:05.236Z,1.99
2019-04-14T20:06:38.505Z,1.94
2019-04-14T20:09:14.475Z,1.88
2019-04-14T20:11:50.171Z,1.78
2019-04-14T20:14:22.137Z,1.73
2019-04-14T20:17:10.942Z,1.65
2019-04-14T20:20:05.374Z,1.61
2019-04-14T20:22:57.126Z,1.55
2019-04-14T20:25:45.251Z,1.48
2019-04-14T20:28:32.801Z,1.38
2019-04-14T20:31:27.958Z,1.33
2019-04-14T20:33:59.575Z,1.30
2019-04-14T20:36:33.662Z,1.25
2019-04-14T20:39:18.001Z,1.18
2019-04-14T20:41:51.846Z,1.16
2019-04-14T20:44:23.676Z,1.13
2019-04-14T20:46:56.358Z,1.10
2019-04-14T20:49:27.997Z,1.04
2019-04-14T20:52:01.373Z,0.94
2019-04-14T20:54:32.177Z,0.87
2019-04-14T20:57:03.086Z,0.84
2019-04-14T20:59:37.605Z,0.79
2019-04-14T21:02:24.799Z,0.76
2019-04-14T21:05:16.337Z,0.70
2019-04-14T21:08:06.748Z,0.68
2019-04-14T21:10:48.084Z,0.58
2019-04-14T21:13:36.906Z,0.49
2019-04-14T21:16:23.960Z,0.40
2019-04-14T21:19:09.237Z,0.41
2019-04-14T21:21:49.925Z,0.36
2019-04-14T21:24:43.904Z,0.31
2019-04-14T21:27:40.071Z,0.29
2019-04-14T21:30:38.981Z,0.24
2019-04-14T21:33:22.284Z,0.18
2019-04-14T21:35:58.433Z,0.14
2019-04-14T21:38:52.666Z,0.12
2019-04-14T21:41:25.904Z,0.10
2019-04-14T21:43:56.842Z,0.09
2019-04-14T21:46:27.337Z,0.08
2019-04-14T21:48:58.371Z,0.05
2019-04-14T21:51:47.887Z,0.02
2019-04-14T21:54:19.160Z,-0.02
2019-04-14T21:57:01.572Z,-0.04
2019-04-14T21:59:34.487Z,-0.06
2019-04-14T22:02:33.226Z,-0.07
2019-04-14T22:05:12.943Z,-0.10
2019-04-14T22:07:48.714Z,-0.16
2019-04-14T22:10:38.636Z,-0.18
2019-04-14T22:13:09.777Z,-0.23
2019-04-14T22:15:41.607Z,-0.26
2019-04-14T22:18:17.002Z,-0.32
2019-04-14T22:20:52.131Z,-0.35
2019-04-14T22:23:26.319Z,-0.38
2019-04-14T22:25:58.758Z,-0.40
2019-04-14T22:28:29.529Z,-0.46
2019-04-14T22:31:00.261Z,-0.47
2019-04-14T22:33:31.117Z,-0.49
2019-04-14T22:36:01.852Z,-0.51
2019-04-14T22:38:32.973Z,-0.53
2019-04-14T22:41:03.919Z,-0.54
2019-04-14T22:43:34.779Z,-0.58
2019-04-14T22:46:05.751Z,-0.63
2019-04-14T22:48:38.144Z,-0.65
2019-04-14T22:51:08.884Z,-0.67
2019-04-14T22:53:39.288Z,-0.68
2019-04-14T22:56:10.180Z,-0.89
2019-04-14T22:58:41.037Z,-0.73
2019-04-14T23:01:23.528Z,-0.77
2019-04-14T23:04:16.607Z,-0.80
2019-04-14T23:07:12.195Z,-0.83
2019-04-14T23:09:50.294Z,-0.85
2019-04-14T23:12:33.007Z,-0.88
2019-04-14T23:15:19.044Z,-0.88
2019-04-14T23:18:14.748Z,-0.89
2019-04-14T23:20:52.874Z,-0.92
2019-04-14T23:23:42.696Z,-0.96
2019-04-14T23:26:13.339Z,-0.98
2019-04-14T23:28:44.083Z,-1.02
2019-04-14T23:31:14.722Z,-1.04
2019-04-14T23:33:45.707Z,-1.06
2019-04-14T23:36:16.568Z,-1.11
2019-04-14T23:38:47.350Z,-1.13
2019-04-14T23:41:18.575Z,-1.19
2019-04-14T23:43:49.401Z,-1.23
2019-04-14T23:46:20.044Z,-1.25
2019-04-14T23:48:50.733Z,-1.29
2019-04-14T23:51:21.549Z,-1.31
2019-04-14T23:53:52.232Z,-1.35
2019-04-14T23:56:23.082Z,-1.36
2019-04-14T23:58:53.842Z,-1.38
